»·PEaware :: N5205X KSBA-KSNA

N5205X :: KSBA-KSNA

FLIGHT INFORMATION

Flight Status: Arrived
Operator: Privately registered:
United States
More flights under this callsign
Pilot: Martin B. (29991)
Aircraft: CIRRUS SR-22
(SR22)
More flights by this aircraft type
Origin: KSBA Santa Barbara Mun
United States
Destination: KSNA John Wayne-Orange Co
United States
More flights between these airports :: More routes between these airports
Route: +KWANG CMA VNY V186 BAYJY V363 POXKU V8 SLI
File this flight plan on PilotEdge
Remarks:
Altitude:
(Current/Filed)
7,000ft
Speed:
(Current/Filed)
160kts
Departed: 11-Aug-20 12:12 PM
Arrived: 11-Aug-20 01:04 PM
Distance/Time
Traveled:
108nm/0:52
Distance/Time
To Go:
Arrived

Flight Plot

Page will automatically refresh every two minutes.

Flight plan parsing failed; only flown route is shown


Map Options




Map Legend


Flown Route
Filed Route
Departure Airport
Arrival Airport
Navaid (VOR, NDB)
Fix

Horizontal Profiles

Position Reports

Time Latitude Longitude Heading Altitude Ground
Speed
11-Aug-20 11:51 34.432568 -119.835090 71 17ft 0kts
11-Aug-20 11:51 34.432568 -119.835090 71 17ft 0kts
11-Aug-20 11:53 34.432568 -119.835090 71 17ft 0kts
11-Aug-20 11:54 34.432568 -119.835090 71 17ft 0kts
11-Aug-20 11:54 34.432568 -119.835090 71 17ft 0kts
11-Aug-20 11:55 34.432568 -119.835090 71 17ft 0kts
11-Aug-20 11:56 34.432568 -119.835090 71 17ft 0kts
11-Aug-20 11:57 34.432568 -119.835090 71 17ft 0kts
11-Aug-20 11:58 34.432568 -119.835090 71 17ft 0kts
11-Aug-20 11:59 34.432568 -119.835090 71 17ft 0kts
11-Aug-20 12:00 34.432568 -119.835090 71 17ft 0kts
11-Aug-20 12:01 34.432589 -119.835048 52 17ft 0kts
11-Aug-20 12:02 34.432589 -119.835048 52 17ft 0kts
11-Aug-20 12:03 34.432589 -119.835048 52 17ft 0kts
11-Aug-20 12:04 34.432047 -119.835757 236 16ft 9kts
11-Aug-20 12:05 34.430713 -119.839714 247 14ft 19kts
11-Aug-20 12:06 34.430401 -119.839686 306 14ft 0kts
11-Aug-20 12:07 34.430401 -119.839685 307 14ft 0kts
11-Aug-20 12:08 34.430401 -119.839685 307 14ft 0kts
11-Aug-20 12:09 34.430401 -119.839685 307 14ft 0kts
11-Aug-20 12:10 34.430427 -119.840080 238 14ft 8kts
11-Aug-20 12:11 34.415006 -119.835272 171 586ft 98kts
11-Aug-20 12:12 34.385484 -119.825074 164 1462ft 126kts
11-Aug-20 12:13 34.352113 -119.810717 161 2203ft 124kts
11-Aug-20 12:14 34.330595 -119.776474 111 2659ft 127kts
11-Aug-20 12:15 34.322712 -119.732783 95 3017ft 146kts
11-Aug-20 12:16 34.319052 -119.680724 94 3328ft 159kts
11-Aug-20 12:17 34.316232 -119.632621 93 4594ft 136kts
11-Aug-20 12:18 34.313328 -119.583156 94 5024ft 168kts
11-Aug-20 12:19 34.309944 -119.527126 94 5564ft 158kts
11-Aug-20 12:20 34.300588 -119.476593 106 6296ft 152kts
11-Aug-20 12:21 34.289376 -119.427576 107 6976ft 151kts
11-Aug-20 12:22 34.277167 -119.374418 107 7023ft 172kts
11-Aug-20 12:23 34.264186 -119.317914 108 7017ft 175kts
11-Aug-20 12:24 34.251096 -119.261065 108 7017ft 175kts
11-Aug-20 12:25 34.238044 -119.204514 108 7014ft 174kts
11-Aug-20 12:26 34.225007 -119.148140 108 7013ft 174kts
11-Aug-20 12:27 34.212640 -119.091538 92 7003ft 176kts
11-Aug-20 12:28 34.213790 -119.032464 90 7011ft 177kts
11-Aug-20 12:29 34.214984 -118.972584 90 7009ft 178kts
11-Aug-20 12:30 34.216145 -118.912391 90 7009ft 180kts
11-Aug-20 12:31 34.217297 -118.851500 90 7009ft 181kts
11-Aug-20 12:32 34.218419 -118.790070 89 7020ft 182kts
11-Aug-20 12:33 34.219508 -118.728682 89 7032ft 183kts
11-Aug-20 12:34 34.220584 -118.666862 88 7028ft 183kts
11-Aug-20 12:35 34.221625 -118.605114 88 7030ft 183kts
11-Aug-20 12:36 34.222631 -118.543730 87 7034ft 182kts
11-Aug-20 12:37 34.221485 -118.483196 113 7034ft 174kts
11-Aug-20 12:38 34.204656 -118.429166 112 7025ft 171kts
11-Aug-20 12:39 34.188101 -118.374846 112 7019ft 172kts
11-Aug-20 12:40 34.171157 -118.319220 113 6042ft 180kts
11-Aug-20 12:41 34.154569 -118.264651 113 4991ft 150kts
11-Aug-20 12:42 34.141972 -118.223192 114 4998ft 118kts
11-Aug-20 12:43 34.131170 -118.187821 114 4985ft 108kts
11-Aug-20 12:44 34.120868 -118.154169 115 4960ft 106kts
11-Aug-20 12:45 34.110737 -118.121103 115 4942ft 104kts
11-Aug-20 12:46 34.100681 -118.088310 115 4929ft 103kts
11-Aug-20 12:47 34.088965 -118.056767 124 4929ft 110kts
11-Aug-20 12:48 34.069464 -118.016605 123 5035ft 160kts
11-Aug-20 12:49 34.045975 -117.968549 123 5022ft 169kts
11-Aug-20 12:50 34.021788 -117.919258 123 5019ft 171kts
11-Aug-20 12:51 33.997385 -117.869604 122 5016ft 172kts
11-Aug-20 12:52 33.972930 -117.819912 122 5012ft 172kts
11-Aug-20 12:53 33.952195 -117.777799 123 4181ft 120kts
11-Aug-20 12:54 33.933098 -117.743232 155 4011ft 137kts
11-Aug-20 12:55 33.895935 -117.726878 178 3999ft 144kts
11-Aug-20 12:56 33.861946 -117.749699 210 4003ft 142kts
11-Aug-20 12:57 33.823774 -117.774724 208 3266ft 165kts
11-Aug-20 12:58 33.783383 -117.800473 208 2377ft 164kts
11-Aug-20 12:59 33.744633 -117.825098 207 1443ft 133kts
11-Aug-20 13:00 33.717164 -117.842197 215 742ft 91kts
11-Aug-20 13:01 33.697022 -117.855751 206 603ft 76kts
11-Aug-20 13:02 33.679154 -117.866638 207 73ft 63kts
11-Aug-20 13:03 33.673923 -117.867709 121 59ft 14kts
11-Aug-20 13:04 33.670589 -117.869397 217 59ft 21kts
11-Aug-20 13:05 33.668153 -117.870994 212 59ft 0kts

Navigation Log

Ident Type
Flight plan parsing failed, navigation log unavailable